createdAt,value
2019-05-30T00:00:16.570Z,60.30
2019-05-30T00:02:34.986Z,60.40
2019-05-30T00:05:02.702Z,60.38
2019-05-30T00:10:01.166Z,60.51
2019-05-30T00:12:27.801Z,60.62
2019-05-30T00:14:54.530Z,60.68
2019-05-30T00:17:21.214Z,60.66
2019-05-30T00:19:47.812Z,60.64
2019-05-30T00:22:14.418Z,60.63
2019-05-30T00:24:41.123Z,60.76
2019-05-30T00:27:07.720Z,60.88
2019-05-30T00:29:34.330Z,60.96
2019-05-30T00:32:01.592Z,61.08
2019-05-30T00:34:28.328Z,61.05
2019-05-30T00:36:58.187Z,60.96
2019-05-30T00:39:24.847Z,60.97
2019-05-30T00:41:52.375Z,61.05
2019-05-30T00:44:19.016Z,61.14
2019-05-30T00:46:45.603Z,61.21
2019-05-30T00:49:12.252Z,61.26
2019-05-30T00:51:38.871Z,61.31
2019-05-30T00:54:06.870Z,61.35
2019-05-30T00:56:33.670Z,61.35
2019-05-30T00:59:00.660Z,61.36
2019-05-30T01:01:27.442Z,61.34
2019-05-30T01:03:54.028Z,61.41
2019-05-30T01:06:20.669Z,61.40
2019-05-30T01:08:47.302Z,61.46
2019-05-30T01:11:20.124Z,61.48
2019-05-30T01:13:46.751Z,61.49
2019-05-30T01:16:13.407Z,61.51
2019-05-30T01:18:39.996Z,61.69
2019-05-30T01:21:07.435Z,61.66
2019-05-30T01:23:34.537Z,61.73
2019-05-30T01:26:01.406Z,61.77
2019-05-30T01:28:28.008Z,61.77
2019-05-30T01:31:01.538Z,61.95
2019-05-30T01:33:22.975Z,61.88
2019-05-30T01:35:49.564Z,61.80
2019-05-30T01:38:16.183Z,61.86
2019-05-30T01:40:42.804Z,61.85
2019-05-30T01:43:09.515Z,61.85
2019-05-30T01:45:36.127Z,61.82
2019-05-30T01:48:02.959Z,61.85
2019-05-30T01:50:30.037Z,61.81
2019-05-30T01:52:56.625Z,61.71
2019-05-30T01:55:23.272Z,61.74
2019-05-30T01:57:49.874Z,61.74
2019-05-30T02:00:21.339Z,61.70
2019-05-30T02:02:44.903Z,61.64
2019-05-30T02:05:11.498Z,61.61
2019-05-30T02:07:38.143Z,61.58
2019-05-30T02:10:05.304Z,61.47
2019-05-30T02:12:32.009Z,61.44
2019-05-30T02:14:59.396Z,61.43
2019-05-30T02:17:26.153Z,61.35
2019-05-30T02:19:52.745Z,61.21
2019-05-30T02:22:19.366Z,61.18
2019-05-30T02:24:45.951Z,61.14
2019-05-30T02:27:12.579Z,61.10
2019-05-30T02:29:39.167Z,61.10
2019-05-30T02:32:07.044Z,61.09
2019-05-30T02:34:33.889Z,61.05
2019-05-30T02:37:01.142Z,61.06
2019-05-30T02:39:28.894Z,61.04
2019-05-30T02:41:55.548Z,61.04
2019-05-30T02:44:22.142Z,61.00
2019-05-30T02:46:55.166Z,60.97
2019-05-30T02:49:21.759Z,60.91
2019-05-30T02:51:48.393Z,60.84
2019-05-30T02:54:15.170Z,60.76
2019-05-30T02:56:41.805Z,60.67
2019-05-30T02:59:09.334Z,60.51
2019-05-30T03:01:36.771Z,60.39
2019-05-30T03:04:04.040Z,60.27
2019-05-30T03:06:31.711Z,60.20
2019-05-30T03:08:58.299Z,60.15
2019-05-30T03:11:24.991Z,60.06
2019-05-30T03:13:51.564Z,59.99
2019-05-30T03:16:18.156Z,59.78
2019-05-30T03:18:44.831Z,59.77
2019-05-30T03:21:13.430Z,59.70
2019-05-30T03:23:39.785Z,59.73
2019-05-30T03:26:09.182Z,59.73
2019-05-30T03:28:34.764Z,59.68
2019-05-30T03:31:04.417Z,59.57
2019-05-30T03:33:39.512Z,59.46
2019-05-30T03:35:58.137Z,59.44
2019-05-30T03:38:24.763Z,59.33
2019-05-30T03:40:51.426Z,59.26
2019-05-30T03:43:18.037Z,59.24
2019-05-30T03:45:44.716Z,59.18
2019-05-30T03:48:12.334Z,59.10
2019-05-30T03:50:39.781Z,59.08
2019-05-30T03:53:07.435Z,59.00
2019-05-30T03:55:34.730Z,58.87
2019-05-30T03:58:01.385Z,58.73
2019-05-30T04:00:28.083Z,58.61
2019-05-30T04:02:58.417Z,58.63
2019-05-30T04:05:23.238Z,58.57
2019-05-30T04:07:49.855Z,58.44
2019-05-30T04:10:16.461Z,58.37
2019-05-30T04:12:43.092Z,58.30
2019-05-30T04:15:10.576Z,58.30
2019-05-30T04:17:38.148Z,58.32
2019-05-30T04:20:04.761Z,58.24
2019-05-30T04:22:31.562Z,58.20
2019-05-30T04:24:58.171Z,58.13
2019-05-30T04:27:24.761Z,58.14
2019-05-30T04:29:51.382Z,58.08
2019-05-30T04:32:18.720Z,57.91
2019-05-30T04:34:54.624Z,57.78
2019-05-30T04:37:21.297Z,57.64
2019-05-30T04:39:47.937Z,57.60
2019-05-30T04:42:16.122Z,57.50
2019-05-30T04:44:42.929Z,57.38
2019-05-30T04:47:09.992Z,57.33
2019-05-30T04:52:14.244Z,57.30
2019-05-30T04:54:37.573Z,57.22
2019-05-30T04:57:04.223Z,57.13
2019-05-30T04:59:30.827Z,57.25
2019-05-30T05:01:57.630Z,57.14
2019-05-30T05:04:24.229Z,57.13
2019-05-30T05:06:53.604Z,57.04
2019-05-30T05:09:20.406Z,56.94
2019-05-30T05:14:20.586Z,56.93
2019-05-30T05:16:47.313Z,56.92
2019-05-30T05:19:14.882Z,56.77
2019-05-30T05:21:41.769Z,56.70
2019-05-30T05:24:08.371Z,56.48
2019-05-30T05:26:40.706Z,56.54
2019-05-30T05:29:07.328Z,56.44
2019-05-30T05:31:33.927Z,56.38
2019-05-30T05:34:01.845Z,56.11
2019-05-30T05:36:28.437Z,56.02
2019-05-30T05:38:55.073Z,56.02
2019-05-30T05:41:22.291Z,56.02
2019-05-30T05:43:49.072Z,56.11
2019-05-30T05:46:16.434Z,56.11
2019-05-30T05:48:43.213Z,56.17
2019-05-30T05:51:09.802Z,56.16
2019-05-30T05:53:36.436Z,55.97
2019-05-30T05:56:03.066Z,55.98
2019-05-30T05:58:29.668Z,56.13
2019-05-30T06:00:56.280Z,56.17
2019-05-30T06:03:24.147Z,56.15
2019-05-30T06:05:53.369Z,56.04
2019-05-30T06:08:19.574Z,55.99
2019-05-30T06:10:46.276Z,56.11
2019-05-30T06:13:12.903Z,56.20
2019-05-30T06:15:39.486Z,56.24
2019-05-30T06:18:12.088Z,56.29
2019-05-30T06:20:38.825Z,56.30
2019-05-30T06:23:05.530Z,56.16
2019-05-30T06:25:33.055Z,56.13
2019-05-30T06:27:59.796Z,56.19
2019-05-30T06:30:26.479Z,56.25
2019-05-30T06:32:53.112Z,56.33
2019-05-30T06:35:21.398Z,56.49
2019-05-30T06:37:48.292Z,56.72
2019-05-30T06:40:14.877Z,56.84
2019-05-30T06:42:41.473Z,56.81
2019-05-30T06:45:08.104Z,56.94
2019-05-30T06:47:35.724Z,57.04
2019-05-30T06:50:02.302Z,57.15
2019-05-30T06:52:29.164Z,57.23
2019-05-30T06:54:55.888Z,57.19
2019-05-30T06:57:23.118Z,57.10
2019-05-30T06:59:49.858Z,57.07
2019-05-30T07:02:16.695Z,56.99
2019-05-30T07:04:51.639Z,57.00
2019-05-30T07:07:11.970Z,57.14
2019-05-30T07:09:38.801Z,57.21
2019-05-30T07:12:07.263Z,57.25
2019-05-30T07:14:33.932Z,57.30
2019-05-30T07:17:00.539Z,57.44
2019-05-30T07:19:27.390Z,57.60
2019-05-30T07:21:54.264Z,57.63
2019-05-30T07:24:20.902Z,57.64
2019-05-30T07:26:47.513Z,57.56
2019-05-30T07:29:14.134Z,57.47
2019-05-30T07:31:40.832Z,57.37
2019-05-30T07:34:07.444Z,57.37
2019-05-30T07:36:34.435Z,57.40
2019-05-30T07:39:01.128Z,57.50
2019-05-30T07:41:28.777Z,57.70
2019-05-30T07:43:58.276Z,57.81
2019-05-30T07:46:24.864Z,57.97
2019-05-30T07:48:51.500Z,58.03
2019-05-30T07:51:19.417Z,58.13
2019-05-30T07:53:47.778Z,58.34
2019-05-30T07:56:14.480Z,58.27
2019-05-30T07:58:41.181Z,58.17
2019-05-30T08:01:07.783Z,58.29
2019-05-30T08:03:34.735Z,58.48
2019-05-30T08:06:01.505Z,58.62
2019-05-30T08:08:28.181Z,58.32
2019-05-30T08:11:08.291Z,58.30
2019-05-30T08:13:23.393Z,58.27
2019-05-30T08:15:50.025Z,58.26
2019-05-30T08:18:16.644Z,58.16
2019-05-30T08:20:43.297Z,58.08
2019-05-30T08:23:10.159Z,58.00
2019-05-30T08:25:36.975Z,57.93
2019-05-30T08:28:03.629Z,58.00
2019-05-30T08:30:30.393Z,58.03
2019-05-30T08:32:57.308Z,58.12
2019-05-30T08:35:39.145Z,58.23
2019-05-30T08:37:52.233Z,58.35
2019-05-30T08:40:18.894Z,58.53
2019-05-30T08:42:45.493Z,58.63
2019-05-30T08:45:12.092Z,58.69
2019-05-30T08:47:38.723Z,58.73
2019-05-30T08:50:05.395Z,58.76
2019-05-30T08:52:32.385Z,58.61
2019-05-30T08:54:59.090Z,58.49
2019-05-30T08:57:25.709Z,58.50
2019-05-30T08:59:52.328Z,58.65
2019-05-30T09:02:18.933Z,58.65
2019-05-30T09:04:46.011Z,58.56
2019-05-30T09:07:12.775Z,58.40
2019-05-30T09:09:40.187Z,58.30
2019-05-30T09:12:06.975Z,58.15
2019-05-30T09:14:33.633Z,58.04
2019-05-30T09:17:00.237Z,58.19
2019-05-30T09:19:26.854Z,58.27
2019-05-30T09:21:53.489Z,58.33
2019-05-30T09:24:20.119Z,58.26
2019-05-30T09:26:49.047Z,58.35
2019-05-30T09:29:15.082Z,58.33
2019-05-30T09:31:42.809Z,58.19
2019-05-30T09:34:12.050Z,58.05
2019-05-30T09:36:39.451Z,58.04
2019-05-30T09:39:06.265Z,57.90
2019-05-30T09:41:32.893Z,58.06
2019-05-30T09:43:59.497Z,58.14
2019-05-30T09:46:26.131Z,58.01
2019-05-30T09:48:52.766Z,57.80
2019-05-30T09:51:19.352Z,57.51
2019-05-30T09:53:46.090Z,57.24
2019-05-30T09:56:12.792Z,57.10
2019-05-30T09:58:39.404Z,57.05
2019-05-30T10:01:06.006Z,57.15
2019-05-30T10:03:32.728Z,57.28
2019-05-30T10:05:59.377Z,57.44
2019-05-30T10:08:25.982Z,57.63
2019-05-30T10:10:53.522Z,57.78
2019-05-30T10:13:20.317Z,57.97
2019-05-30T10:15:47.085Z,58.05
2019-05-30T10:18:14.012Z,58.19
2019-05-30T10:20:41.974Z,58.28
2019-05-30T10:23:08.731Z,58.32
2019-05-30T10:25:35.326Z,58.03
2019-05-30T10:28:01.927Z,57.95
2019-05-30T10:30:28.544Z,57.91
2019-05-30T10:32:55.963Z,57.73
2019-05-30T10:35:22.753Z,57.55
2019-05-30T10:37:50.765Z,57.65
2019-05-30T10:40:17.697Z,57.56
2019-05-30T10:42:44.329Z,57.65
2019-05-30T10:45:10.957Z,57.61
2019-05-30T10:47:37.584Z,57.68
2019-05-30T10:50:04.170Z,57.75
2019-05-30T10:52:30.819Z,57.81
2019-05-30T10:54:57.455Z,57.86
2019-05-30T10:57:24.170Z,57.92
2019-05-30T10:59:50.944Z,57.93
2019-05-30T11:02:17.677Z,57.74
2019-05-30T11:04:44.270Z,57.70
2019-05-30T11:07:12.020Z,57.54
2019-05-30T11:09:39.022Z,57.44
2019-05-30T11:12:05.618Z,57.31
2019-05-30T11:14:32.242Z,57.46
2019-05-30T11:16:58.827Z,57.72
2019-05-30T11:19:25.472Z,57.84
2019-05-30T11:21:52.799Z,57.87
2019-05-30T11:24:20.568Z,58.02
2019-05-30T11:26:50.420Z,58.14
2019-05-30T11:29:15.507Z,58.31
2019-05-30T11:31:42.132Z,58.14
2019-05-30T11:34:08.737Z,57.95
2019-05-30T11:36:35.378Z,57.92
2019-05-30T11:39:02.016Z,57.84
2019-05-30T11:41:28.673Z,57.66
2019-05-30T11:43:55.639Z,57.61
2019-05-30T11:46:22.339Z,57.56
2019-05-30T11:48:49.615Z,57.58
2019-05-30T11:51:16.352Z,57.49
2019-05-30T11:53:42.949Z,57.64
2019-05-30T11:56:09.592Z,57.57
2019-05-30T11:58:36.182Z,57.58
2019-05-30T12:01:02.861Z,57.73
2019-05-30T12:03:29.813Z,57.97
2019-05-30T12:05:56.626Z,58.21
2019-05-30T12:08:23.237Z,58.44
2019-05-30T12:10:51.087Z,58.85
2019-05-30T12:13:17.826Z,58.95
2019-05-30T12:15:44.467Z,59.12
2019-05-30T12:18:11.065Z,59.37
2019-05-30T12:20:37.705Z,59.71
2019-05-30T12:23:04.324Z,59.83
2019-05-30T12:25:30.928Z,59.70
2019-05-30T12:27:58.163Z,60.00
2019-05-30T12:30:24.907Z,60.00
2019-05-30T12:32:52.440Z,59.79
2019-05-30T12:35:19.338Z,60.21
2019-05-30T12:37:54.967Z,60.39
2019-05-30T12:40:14.414Z,60.34
2019-05-30T12:42:41.005Z,60.15
2019-05-30T12:45:07.629Z,60.16
2019-05-30T12:47:34.249Z,60.45
2019-05-30T12:50:01.425Z,60.33
2019-05-30T12:52:28.275Z,60.81
2019-05-30T12:54:54.927Z,61.05
2019-05-30T12:57:21.623Z,60.99
2019-05-30T12:59:48.220Z,60.61
2019-05-30T13:02:14.872Z,60.42
2019-05-30T13:04:41.647Z,60.28
2019-05-30T13:07:08.245Z,60.09
2019-05-30T13:09:34.887Z,59.98
2019-05-30T13:12:02.595Z,59.64
2019-05-30T13:14:29.320Z,59.48
2019-05-30T13:16:55.974Z,59.53
2019-05-30T13:19:22.588Z,59.72
2019-05-30T13:21:49.191Z,60.04
2019-05-30T13:24:15.881Z,59.96
2019-05-30T13:26:42.726Z,59.86
2019-05-30T13:29:09.342Z,60.02
2019-05-30T13:31:35.932Z,60.03
2019-05-30T13:34:02.936Z,59.92
2019-05-30T13:36:29.756Z,60.00
2019-05-30T13:38:57.107Z,59.87
2019-05-30T13:41:23.884Z,60.01
2019-05-30T13:43:50.512Z,59.94
2019-05-30T13:46:17.115Z,60.05
2019-05-30T13:48:43.752Z,60.05
2019-05-30T13:51:10.406Z,60.21
2019-05-30T13:53:37.009Z,60.35
2019-05-30T13:56:03.626Z,60.31
2019-05-30T13:58:30.264Z,60.48
2019-05-30T14:00:56.881Z,60.73
2019-05-30T14:03:23.493Z,60.58
2019-05-30T14:05:50.137Z,60.83
2019-05-30T14:08:16.921Z,60.98
2019-05-30T14:10:43.549Z,61.13
2019-05-30T14:13:11.263Z,61.12
2019-05-30T14:15:38.078Z,61.38
2019-05-30T14:18:04.998Z,61.13
2019-05-30T14:20:31.674Z,61.23
2019-05-30T14:22:58.351Z,61.33
2019-05-30T14:25:24.972Z,61.59
2019-05-30T14:27:51.561Z,61.71
2019-05-30T14:30:18.193Z,61.53
2019-05-30T14:32:44.903Z,61.47
2019-05-30T14:35:13.672Z,61.81
2019-05-30T14:37:40.341Z,61.66
2019-05-30T14:40:06.998Z,61.58
2019-05-30T14:42:33.612Z,61.81
2019-05-30T14:45:00.198Z,62.10
2019-05-30T14:47:26.870Z,62.04
2019-05-30T14:49:53.471Z,62.07
2019-05-30T14:52:20.065Z,61.82
2019-05-30T14:54:46.688Z,62.05
2019-05-30T14:57:13.363Z,62.00
2019-05-30T14:59:39.977Z,62.38
2019-05-30T15:02:07.114Z,62.37
2019-05-30T15:04:33.907Z,62.64
2019-05-30T15:07:00.695Z,62.91
2019-05-30T15:09:27.467Z,63.07
2019-05-30T15:11:54.103Z,62.99
2019-05-30T15:14:20.740Z,63.28
2019-05-30T15:16:47.365Z,63.61
2019-05-30T15:19:14.334Z,63.75
2019-05-30T15:21:41.073Z,63.83
2019-05-30T15:24:07.803Z,63.66
2019-05-30T15:26:34.531Z,63.48
2019-05-30T15:29:01.127Z,63.95
2019-05-30T15:31:27.997Z,64.26
2019-05-30T15:33:54.609Z,64.49
2019-05-30T15:36:21.273Z,64.65
2019-05-30T15:38:47.886Z,64.40
2019-05-30T15:41:15.231Z,65.22
2019-05-30T15:43:41.921Z,64.99
2019-05-30T15:46:09.733Z,65.26
2019-05-30T15:48:36.535Z,65.59
2019-05-30T15:51:03.154Z,65.16
2019-05-30T15:53:29.791Z,65.30
2019-05-30T15:55:56.405Z,65.48
2019-05-30T15:58:23.087Z,65.31
2019-05-30T16:00:49.692Z,65.44
2019-05-30T16:03:16.511Z,65.26
2019-05-30T16:05:43.180Z,65.12
2019-05-30T16:08:10.667Z,65.01
2019-05-30T16:10:37.300Z,65.61
2019-05-30T16:13:03.893Z,65.53
2019-05-30T16:15:30.557Z,65.05
2019-05-30T16:17:57.164Z,65.65
2019-05-30T16:20:23.808Z,65.99
2019-05-30T16:22:50.490Z,66.10
2019-05-30T16:25:17.723Z,66.11
2019-05-30T16:27:44.640Z,66.44
2019-05-30T16:30:25.157Z,66.72
2019-05-30T16:32:48.405Z,66.69
2019-05-30T16:35:15.984Z,66.63
2019-05-30T16:37:42.741Z,66.81
2019-05-30T16:40:09.484Z,66.85
2019-05-30T16:42:36.145Z,66.73
2019-05-30T16:45:02.986Z,66.77
2019-05-30T16:47:29.978Z,66.59
2019-05-30T16:49:56.626Z,66.52
2019-05-30T16:52:23.250Z,66.35
2019-05-30T16:54:49.927Z,66.12
2019-05-30T16:57:18.545Z,66.38
2019-05-30T16:59:45.335Z,65.96
2019-05-30T17:02:11.991Z,65.83
2019-05-30T17:04:40.885Z,65.99
2019-05-30T17:07:07.195Z,66.14
2019-05-30T17:09:33.870Z,65.94
2019-05-30T17:12:00.477Z,66.07
2019-05-30T17:14:27.099Z,66.48
2019-05-30T17:16:53.869Z,66.35
2019-05-30T17:19:20.493Z,66.47
2019-05-30T17:21:47.083Z,66.50
2019-05-30T17:24:13.700Z,66.31
2019-05-30T17:26:40.336Z,66.44
2019-05-30T17:29:06.959Z,66.39
2019-05-30T17:31:33.541Z,66.44
2019-05-30T17:34:00.216Z,66.54
2019-05-30T17:36:26.937Z,66.39
2019-05-30T17:38:53.580Z,66.86
2019-05-30T17:41:20.566Z,66.50
2019-05-30T17:43:47.258Z,66.90
2019-05-30T17:46:13.854Z,66.75
2019-05-30T17:48:40.491Z,66.78
2019-05-30T17:51:07.087Z,66.80
2019-05-30T17:53:33.744Z,66.90
2019-05-30T17:56:00.338Z,67.03
2019-05-30T17:58:28.025Z,67.44
2019-05-30T18:00:57.093Z,66.93
2019-05-30T18:03:24.334Z,66.79
2019-05-30T18:05:51.091Z,66.87
2019-05-30T18:08:17.698Z,67.13
2019-05-30T18:10:53.405Z,67.13
2019-05-30T18:13:12.644Z,67.24
2019-05-30T18:15:39.247Z,67.20
2019-05-30T18:18:05.879Z,67.55
2019-05-30T18:20:45.587Z,67.73
2019-05-30T18:23:00.833Z,67.74
2019-05-30T18:25:27.698Z,67.47
2019-05-30T18:27:54.441Z,67.84
2019-05-30T18:30:21.698Z,67.74
2019-05-30T18:32:48.467Z,67.76
2019-05-30T18:35:15.069Z,67.49
2019-05-30T18:37:41.678Z,67.71
2019-05-30T18:40:08.293Z,67.75
2019-05-30T18:42:34.924Z,67.62
2019-05-30T18:45:01.545Z,67.93
2019-05-30T18:47:29.103Z,68.08
2019-05-30T18:49:55.959Z,68.31
2019-05-30T18:52:22.597Z,68.50
2019-05-30T18:54:49.193Z,68.50
2019-05-30T18:57:15.839Z,68.25
2019-05-30T18:59:42.426Z,68.29
2019-05-30T19:02:09.049Z,68.30
2019-05-30T19:04:35.914Z,68.65
2019-05-30T19:07:02.665Z,68.41
2019-05-30T19:09:29.453Z,68.64
2019-05-30T19:11:56.111Z,68.57
2019-05-30T19:14:22.713Z,68.73
2019-05-30T19:16:49.359Z,68.65
2019-05-30T19:19:15.992Z,68.72
2019-05-30T19:21:42.625Z,68.42
2019-05-30T19:24:09.227Z,68.52
2019-05-30T19:26:36.726Z,68.67
2019-05-30T19:29:03.595Z,69.00
2019-05-30T19:31:32.713Z,69.16
2019-05-30T19:33:59.397Z,68.97
2019-05-30T19:36:26.841Z,69.19
2019-05-30T19:38:53.530Z,68.78
2019-05-30T19:41:20.125Z,68.96
2019-05-30T19:43:47.640Z,68.80
2019-05-30T19:46:14.292Z,68.86
2019-05-30T19:48:40.900Z,68.68
2019-05-30T19:51:07.805Z,68.96
2019-05-30T19:53:34.949Z,68.52
2019-05-30T19:56:01.726Z,69.05
2019-05-30T19:58:29.534Z,69.17
2019-05-30T20:00:58.897Z,69.10
2019-05-30T20:03:36.414Z,69.26
2019-05-30T20:05:52.955Z,69.12
2019-05-30T20:08:19.587Z,69.21
2019-05-30T20:10:46.181Z,68.83
2019-05-30T20:13:12.819Z,69.02
2019-05-30T20:15:39.615Z,69.32
2019-05-30T20:18:06.396Z,69.16
2019-05-30T20:20:49.365Z,69.10
2019-05-30T20:23:01.359Z,69.08
2019-05-30T20:25:28.014Z,69.26
2019-05-30T20:27:54.610Z,69.24
2019-05-30T20:30:21.312Z,69.42
2019-05-30T20:32:47.970Z,69.44
2019-05-30T20:35:15.681Z,69.59
2019-05-30T20:37:42.965Z,69.59
2019-05-30T20:40:09.698Z,69.61
2019-05-30T20:42:36.793Z,69.58
2019-05-30T20:45:05.715Z,69.67
2019-05-30T20:47:35.354Z,69.40
2019-05-30T20:50:00.235Z,69.33
2019-05-30T20:52:26.897Z,69.59
2019-05-30T20:54:53.515Z,69.54
2019-05-30T20:57:20.111Z,69.59
2019-05-30T20:59:47.095Z,69.59
2019-05-30T21:02:13.948Z,69.73
2019-05-30T21:04:40.945Z,69.76
2019-05-30T21:07:07.758Z,69.79
2019-05-30T21:09:35.852Z,69.75
2019-05-30T21:12:02.665Z,69.69
2019-05-30T21:14:29.258Z,69.64
2019-05-30T21:16:55.841Z,69.23
2019-05-30T21:19:22.468Z,69.15
2019-05-30T21:21:49.061Z,68.86
2019-05-30T21:24:15.682Z,68.87
2019-05-30T21:26:42.794Z,68.82
2019-05-30T21:29:09.615Z,69.02
2019-05-30T21:31:37.266Z,69.10
2019-05-30T21:34:04.283Z,69.23
2019-05-30T21:36:30.990Z,69.15
2019-05-30T21:38:57.663Z,69.08
2019-05-30T21:41:24.291Z,69.04
2019-05-30T21:43:50.903Z,68.95
2019-05-30T21:46:17.496Z,68.93
2019-05-30T21:48:44.934Z,68.83
2019-05-30T21:51:11.738Z,68.66
2019-05-30T21:53:39.348Z,68.54
2019-05-30T21:56:06.080Z,68.46
2019-05-30T21:58:32.670Z,68.42
2019-05-30T22:00:59.270Z,68.40
2019-05-30T22:03:25.901Z,68.42
2019-05-30T22:05:52.503Z,68.22
2019-05-30T22:08:19.105Z,68.09
2019-05-30T22:10:45.718Z,68.19
2019-05-30T22:13:12.332Z,68.30
2019-05-30T22:15:38.935Z,68.56
2019-05-30T22:18:05.631Z,68.65
2019-05-30T22:20:32.227Z,68.50
2019-05-30T22:22:58.877Z,68.61
2019-05-30T22:25:25.469Z,68.65
2019-05-30T22:27:52.543Z,68.74
2019-05-30T22:30:19.311Z,68.79
2019-05-30T22:32:46.583Z,68.87
2019-05-30T22:35:13.342Z,68.78
2019-05-30T22:37:39.962Z,68.72
2019-05-30T22:40:06.628Z,68.72
2019-05-30T22:42:33.234Z,68.76
2019-05-30T22:44:59.818Z,68.72
2019-05-30T22:47:26.449Z,68.72
2019-05-30T22:49:53.093Z,68.60
2019-05-30T22:52:19.736Z,68.50
2019-05-30T22:54:47.095Z,68.47
2019-05-30T22:57:13.847Z,68.42
2019-05-30T22:59:40.444Z,68.39
2019-05-30T23:02:07.069Z,68.32
2019-05-30T23:04:33.741Z,68.26
2019-05-30T23:07:00.423Z,68.09
2019-05-30T23:09:27.067Z,68.10
2019-05-30T23:11:53.929Z,68.01
2019-05-30T23:14:20.697Z,67.89
2019-05-30T23:16:48.199Z,67.92
2019-05-30T23:19:14.956Z,67.78
2019-05-30T23:21:41.591Z,67.54
2019-05-30T23:24:08.240Z,67.61
2019-05-30T23:26:34.861Z,67.75
2019-05-30T23:29:01.460Z,67.72
2019-05-30T23:31:28.168Z,67.85
2019-05-30T23:33:54.802Z,67.96
2019-05-30T23:36:21.435Z,68.12
2019-05-30T23:38:48.665Z,68.17
2019-05-30T23:41:15.462Z,68.24
2019-05-30T23:43:55.375Z,68.29
2019-05-30T23:46:10.468Z,68.18
2019-05-30T23:48:37.068Z,68.27
2019-05-30T23:51:03.675Z,68.30
2019-05-30T23:53:30.307Z,68.30
2019-05-30T23:55:56.908Z,68.28
2019-05-30T23:58:23.761Z,68.30
